createdAt,value
2022-12-03T00:02:20.230Z,5.19
2022-12-03T00:04:48.232Z,5.22
2022-12-03T00:07:14.965Z,5.21
2022-12-03T00:09:42.761Z,5.17
2022-12-03T00:12:09.572Z,5.13
2022-12-03T00:14:41.269Z,5.20
2022-12-03T00:17:11.057Z,5.22
2022-12-03T00:19:38.124Z,5.17
2022-12-03T00:22:04.853Z,5.19
2022-12-03T00:24:32.317Z,5.18
2022-12-03T00:26:59.000Z,5.20
2022-12-03T00:29:26.065Z,5.23
2022-12-03T00:31:52.773Z,5.25
2022-12-03T00:34:19.925Z,5.22
2022-12-03T00:36:46.672Z,5.22
2022-12-03T00:39:13.688Z,5.20
2022-12-03T00:41:40.406Z,5.24
2022-12-03T00:44:07.427Z,5.14
2022-12-03T00:46:34.265Z,5.16
2022-12-03T00:49:01.485Z,5.16
2022-12-03T00:51:28.260Z,5.15
2022-12-03T00:53:55.328Z,5.13
2022-12-03T00:56:22.256Z,5.12
2022-12-03T00:58:49.524Z,5.12
2022-12-03T01:01:16.263Z,5.16
2022-12-03T01:03:43.351Z,5.17
2022-12-03T01:06:10.099Z,5.18
2022-12-03T01:08:37.116Z,5.16
2022-12-03T01:11:03.845Z,5.13
2022-12-03T01:13:30.965Z,5.16
2022-12-03T01:15:57.707Z,5.19
2022-12-03T01:18:24.725Z,5.17
2022-12-03T01:20:51.517Z,5.18
2022-12-03T01:23:18.621Z,5.17
2022-12-03T01:25:45.345Z,5.20
2022-12-03T01:28:12.344Z,5.25
2022-12-03T01:30:59.107Z,5.24
2022-12-03T01:33:26.256Z,5.21
2022-12-03T01:35:53.012Z,5.16
2022-12-03T01:38:20.234Z,5.18
2022-12-03T01:40:47.138Z,5.17
2022-12-03T01:43:14.197Z,5.18
2022-12-03T01:45:40.904Z,5.23
2022-12-03T01:48:09.209Z,5.13
2022-12-03T01:50:35.900Z,5.12
2022-12-03T01:53:03.176Z,5.19
2022-12-03T01:55:29.980Z,5.21
2022-12-03T01:57:58.396Z,5.22
2022-12-03T02:00:27.096Z,5.18
2022-12-03T02:02:58.756Z,5.19
2022-12-03T02:05:27.448Z,5.19
2022-12-03T02:07:54.727Z,5.17
2022-12-03T02:10:23.869Z,5.18
2022-12-03T02:12:52.528Z,5.19
2022-12-03T02:15:19.312Z,5.22
2022-12-03T02:17:46.524Z,5.19
2022-12-03T02:20:13.285Z,5.21
2022-12-03T02:22:46.856Z,5.22
2022-12-03T02:25:17.539Z,5.21
2022-12-03T02:27:44.583Z,5.24
2022-12-03T02:30:11.938Z,5.23
2022-12-03T02:32:38.998Z,5.19
2022-12-03T02:35:06.059Z,5.17
2022-12-03T02:37:34.170Z,5.23
2022-12-03T02:40:03.980Z,5.23
2022-12-03T02:42:37.054Z,5.28
2022-12-03T02:45:18.090Z,5.23
2022-12-03T02:47:55.339Z,5.26
2022-12-03T02:50:25.722Z,5.26
2022-12-03T02:52:52.855Z,5.22
2022-12-03T02:55:19.713Z,5.29
2022-12-03T02:57:47.346Z,5.29
2022-12-03T03:00:14.598Z,5.28
2022-12-03T03:02:41.783Z,5.29
2022-12-03T03:05:09.503Z,5.25
2022-12-03T03:07:36.581Z,5.28
2022-12-03T03:10:04.249Z,5.22
2022-12-03T03:12:34.819Z,5.29
2022-12-03T03:15:06.385Z,5.28
2022-12-03T03:17:33.774Z,5.24
2022-12-03T03:20:00.481Z,5.27
2022-12-03T03:22:41.629Z,5.24
2022-12-03T03:25:13.392Z,5.31
2022-12-03T03:27:40.429Z,5.33
2022-12-03T03:30:08.100Z,5.30
2022-12-03T03:32:35.271Z,5.35
2022-12-03T03:35:02.174Z,5.35
2022-12-03T03:37:29.279Z,5.33
2022-12-03T03:39:55.958Z,5.30
2022-12-03T03:42:23.016Z,5.28
2022-12-03T03:44:49.867Z,5.31
2022-12-03T03:47:16.914Z,5.34
2022-12-03T03:49:43.765Z,5.35
2022-12-03T03:52:11.795Z,5.36
2022-12-03T03:54:38.601Z,5.30
2022-12-03T03:57:05.681Z,5.29
2022-12-03T03:59:32.415Z,5.33
2022-12-03T04:01:59.449Z,5.30
2022-12-03T04:04:29.121Z,5.31
2022-12-03T04:06:56.212Z,5.25
2022-12-03T04:09:22.918Z,5.26
2022-12-03T04:12:08.484Z,5.28
2022-12-03T04:14:35.220Z,5.30
2022-12-03T04:17:02.301Z,5.28
2022-12-03T04:19:29.085Z,5.30
2022-12-03T04:22:14.951Z,5.27
2022-12-03T04:24:41.741Z,5.30
2022-12-03T04:27:27.339Z,5.25
2022-12-03T04:29:54.104Z,5.26
2022-12-03T04:32:39.701Z,5.26
2022-12-03T04:35:25.197Z,5.26
2022-12-03T04:37:52.216Z,5.33
2022-12-03T04:40:57.412Z,5.27
2022-12-03T04:43:24.420Z,5.35
2022-12-03T04:45:51.227Z,5.31
2022-12-03T04:48:18.232Z,5.26
2022-12-03T04:50:44.947Z,5.27
2022-12-03T04:53:12.016Z,5.35
2022-12-03T04:55:38.752Z,5.35
2022-12-03T04:58:05.829Z,5.32
2022-12-03T05:00:32.647Z,5.29
2022-12-03T05:02:59.724Z,5.32
2022-12-03T05:05:26.823Z,5.27
2022-12-03T05:07:53.898Z,5.25
2022-12-03T05:10:20.619Z,5.28
2022-12-03T05:12:47.625Z,5.25
2022-12-03T05:15:14.383Z,5.28
2022-12-03T05:17:41.393Z,5.30
2022-12-03T05:20:27.830Z,5.26
2022-12-03T05:22:54.963Z,5.21
2022-12-03T05:25:21.676Z,5.25
2022-12-03T05:27:48.668Z,5.31
2022-12-03T05:30:15.614Z,5.30
2022-12-03T05:32:42.672Z,5.29
2022-12-03T05:35:10.311Z,5.28
2022-12-03T05:37:37.347Z,5.28
2022-12-03T05:40:04.559Z,5.24
2022-12-03T05:42:50.240Z,5.32
2022-12-03T05:45:17.288Z,5.29
2022-12-03T05:47:44.431Z,5.26
2022-12-03T05:50:11.563Z,5.27
2022-12-03T05:52:38.654Z,5.25
2022-12-03T05:55:05.881Z,5.23
2022-12-03T05:57:32.945Z,5.22
2022-12-03T05:59:59.696Z,5.25
2022-12-03T06:02:26.812Z,5.27
2022-12-03T06:04:54.112Z,5.31
2022-12-03T06:07:21.350Z,5.23
2022-12-03T06:09:48.083Z,5.23
2022-12-03T06:12:15.072Z,5.24
2022-12-03T06:14:41.810Z,5.25
2022-12-03T06:17:08.859Z,5.25
2022-12-03T06:19:35.603Z,5.22
2022-12-03T06:22:02.707Z,5.22
2022-12-03T06:24:29.472Z,5.28
2022-12-03T06:26:56.526Z,5.23
2022-12-03T06:29:23.247Z,5.22
2022-12-03T06:31:50.296Z,5.23
2022-12-03T06:34:17.033Z,5.26
2022-12-03T06:36:44.071Z,5.28
2022-12-03T06:39:10.852Z,5.26
2022-12-03T06:41:37.883Z,5.29
2022-12-03T06:44:04.797Z,5.28
2022-12-03T06:46:31.925Z,5.25
2022-12-03T06:48:58.811Z,5.25
2022-12-03T06:51:25.844Z,5.25
2022-12-03T06:53:52.560Z,5.29
2022-12-03T06:56:22.299Z,5.30
2022-12-03T06:58:49.399Z,5.28
2022-12-03T07:01:16.501Z,5.35
2022-12-03T07:03:43.209Z,5.28
2022-12-03T07:06:10.225Z,5.25
2022-12-03T07:08:36.963Z,5.27
2022-12-03T07:11:04.005Z,5.24
2022-12-03T07:13:30.727Z,5.26
2022-12-03T07:15:57.758Z,5.32
2022-12-03T07:18:24.594Z,5.35
2022-12-03T07:20:51.571Z,5.34
2022-12-03T07:23:18.278Z,5.35
2022-12-03T07:25:45.271Z,5.33
2022-12-03T07:28:11.966Z,5.30
2022-12-03T07:30:38.986Z,5.30
2022-12-03T07:33:05.697Z,5.29
2022-12-03T07:35:32.804Z,5.32
2022-12-03T07:37:59.479Z,5.31
2022-12-03T07:40:26.549Z,5.33
2022-12-03T07:42:53.280Z,5.33
2022-12-03T07:45:20.298Z,5.32
2022-12-03T07:47:47.086Z,5.30
2022-12-03T07:50:14.182Z,5.29
2022-12-03T07:52:40.905Z,5.31
2022-12-03T07:55:08.406Z,5.32
2022-12-03T07:57:35.146Z,5.33
2022-12-03T08:00:02.188Z,5.32
2022-12-03T08:02:29.072Z,5.36
2022-12-03T08:04:56.612Z,5.25
2022-12-03T08:07:24.061Z,5.32
2022-12-03T08:09:51.115Z,5.33
2022-12-03T08:12:22.252Z,5.37
2022-12-03T08:14:49.410Z,5.32
2022-12-03T08:17:17.904Z,5.35
2022-12-03T08:19:46.496Z,5.38
2022-12-03T08:22:13.950Z,5.40
2022-12-03T08:24:41.143Z,5.31
2022-12-03T08:27:18.278Z,5.31
2022-12-03T08:29:45.995Z,5.32
2022-12-03T08:32:12.862Z,5.34
2022-12-03T08:34:43.875Z,5.41
2022-12-03T08:37:17.850Z,5.45
2022-12-03T08:39:49.411Z,5.42
2022-12-03T08:42:40.762Z,5.47
2022-12-03T08:45:28.086Z,5.47
2022-12-03T08:48:26.828Z,5.47
2022-12-03T08:51:02.094Z,5.46
2022-12-03T08:53:36.747Z,5.46
2022-12-03T08:56:25.195Z,5.46
2022-12-03T08:58:58.848Z,5.45
2022-12-03T09:01:32.897Z,5.44
2022-12-03T09:04:20.879Z,5.48
2022-12-03T09:06:48.043Z,5.51
2022-12-03T09:09:14.764Z,5.50
2022-12-03T09:11:43.222Z,5.51
2022-12-03T09:14:15.127Z,5.54
2022-12-03T09:16:45.295Z,5.54
2022-12-03T09:19:12.118Z,5.53
2022-12-03T09:21:39.111Z,5.51
2022-12-03T09:24:06.122Z,5.53
2022-12-03T09:26:33.150Z,5.57
2022-12-03T09:28:59.853Z,5.53
2022-12-03T09:31:27.125Z,5.58
2022-12-03T09:33:53.974Z,5.62
2022-12-03T09:36:20.978Z,5.67
2022-12-03T09:38:48.353Z,5.67
2022-12-03T09:41:15.608Z,5.74
2022-12-03T09:44:03.190Z,5.71
2022-12-03T09:46:29.637Z,5.72
2022-12-03T09:48:56.791Z,5.76
2022-12-03T09:51:26.161Z,5.78
2022-12-03T09:53:52.882Z,5.82
2022-12-03T09:56:22.135Z,5.79
2022-12-03T09:58:49.437Z,5.85
2022-12-03T10:01:16.651Z,5.85
2022-12-03T10:03:48.117Z,5.88
2022-12-03T10:06:20.364Z,5.91
2022-12-03T10:08:48.721Z,5.99
2022-12-03T10:11:17.268Z,6.01
2022-12-03T10:13:44.254Z,6.01
2022-12-03T10:16:12.505Z,6.07
2022-12-03T10:18:41.842Z,6.04
2022-12-03T10:21:17.186Z,6.09
2022-12-03T10:23:43.938Z,6.10
2022-12-03T10:26:10.977Z,6.10
2022-12-03T10:28:39.571Z,6.05
2022-12-03T10:31:08.489Z,6.05
2022-12-03T10:33:48.130Z,6.11
2022-12-03T10:36:27.393Z,6.17
2022-12-03T10:39:18.417Z,6.18
2022-12-03T10:41:45.476Z,6.22
2022-12-03T10:44:22.529Z,6.22
2022-12-03T10:47:10.340Z,6.05
2022-12-03T10:49:37.496Z,6.25
2022-12-03T10:52:06.318Z,6.27
2022-12-03T10:54:33.917Z,6.30
2022-12-03T10:57:01.578Z,6.30
2022-12-03T10:59:30.163Z,6.28
2022-12-03T11:01:57.281Z,6.30
2022-12-03T11:04:30.188Z,6.29
2022-12-03T11:06:57.270Z,6.21
2022-12-03T11:09:26.622Z,6.22
2022-12-03T11:11:53.826Z,6.43
2022-12-03T11:14:48.733Z,6.41
2022-12-03T11:17:39.547Z,6.11
2022-12-03T11:20:26.682Z,6.14
2022-12-03T11:22:57.350Z,6.24
2022-12-03T11:25:27.185Z,6.28
2022-12-03T11:28:15.696Z,6.36
2022-12-03T11:30:51.612Z,6.40
2022-12-03T11:33:25.034Z,6.45
2022-12-03T11:36:03.975Z,6.44
2022-12-03T11:38:56.028Z,6.51
2022-12-03T11:41:33.363Z,6.54
2022-12-03T11:44:05.711Z,6.47
2022-12-03T11:46:38.732Z,6.46
2022-12-03T11:49:35.673Z,6.47
2022-12-03T11:52:11.799Z,6.62
2022-12-03T11:54:38.811Z,6.61
2022-12-03T11:57:26.924Z,6.53
2022-12-03T12:00:02.426Z,6.48
2022-12-03T12:02:29.259Z,6.53
2022-12-03T12:04:56.480Z,6.63
2022-12-03T12:07:36.293Z,6.64
2022-12-03T12:10:03.534Z,6.74
2022-12-03T12:12:32.298Z,6.71
2022-12-03T12:14:59.425Z,6.73
2022-12-03T12:17:30.392Z,6.73
2022-12-03T12:20:25.174Z,6.82
2022-12-03T12:22:52.992Z,6.74
2022-12-03T12:25:37.377Z,6.80
2022-12-03T12:28:04.108Z,6.69
2022-12-03T12:30:31.203Z,6.72
2022-12-03T12:33:27.685Z,6.76
2022-12-03T12:35:54.728Z,6.81
2022-12-03T12:38:21.697Z,6.84
2022-12-03T12:40:49.637Z,6.67
2022-12-03T12:43:20.470Z,6.69
2022-12-03T12:45:51.439Z,6.64
2022-12-03T12:48:36.464Z,6.88
2022-12-03T12:51:10.500Z,6.78
2022-12-03T12:53:37.678Z,6.90
2022-12-03T12:56:24.685Z,6.87
2022-12-03T12:58:51.583Z,6.85
2022-12-03T13:01:25.162Z,6.56
2022-12-03T13:03:52.057Z,6.58
2022-12-03T13:06:21.508Z,6.54
2022-12-03T13:08:49.068Z,6.65
2022-12-03T13:11:25.359Z,6.72
2022-12-03T13:13:52.140Z,6.77
2022-12-03T13:16:21.369Z,6.83
2022-12-03T13:18:58.176Z,6.85
2022-12-03T13:21:41.806Z,6.78
2022-12-03T13:24:28.812Z,6.94
2022-12-03T13:26:56.148Z,7.01
2022-12-03T13:29:22.936Z,7.21
2022-12-03T13:31:54.322Z,7.41
2022-12-03T13:34:25.665Z,7.56
2022-12-03T13:36:58.177Z,7.50
2022-12-03T13:39:33.302Z,7.47
2022-12-03T13:42:40.941Z,7.46
2022-12-03T13:45:13.763Z,7.37
2022-12-03T13:47:45.271Z,7.17
2022-12-03T13:50:22.294Z,7.17
2022-12-03T13:52:49.395Z,7.20
2022-12-03T13:55:31.028Z,7.23
2022-12-03T13:57:58.253Z,7.19
2022-12-03T14:00:25.118Z,7.16
2022-12-03T14:02:52.344Z,7.12
2022-12-03T14:05:36.980Z,7.08
2022-12-03T14:08:04.958Z,7.04
2022-12-03T14:10:31.848Z,6.97
2022-12-03T14:12:58.939Z,7.06
2022-12-03T14:15:26.464Z,7.04
2022-12-03T14:17:53.708Z,6.95
2022-12-03T14:20:20.612Z,6.89
2022-12-03T14:22:47.664Z,6.95
2022-12-03T14:25:14.456Z,6.99
2022-12-03T14:27:41.559Z,6.92
2022-12-03T14:30:08.985Z,6.95
2022-12-03T14:32:36.089Z,6.99
2022-12-03T14:35:08.130Z,6.95
2022-12-03T14:37:36.933Z,6.95
2022-12-03T14:40:03.999Z,6.96
2022-12-03T14:42:31.047Z,6.93
2022-12-03T14:44:57.826Z,6.92
2022-12-03T14:47:24.916Z,6.96
2022-12-03T14:49:52.039Z,6.94
2022-12-03T14:52:19.792Z,6.91
2022-12-03T14:54:46.592Z,6.90
2022-12-03T14:57:14.180Z,6.80
2022-12-03T14:59:41.716Z,6.73
2022-12-03T15:02:09.551Z,6.63
2022-12-03T15:04:36.537Z,6.64
2022-12-03T15:07:03.686Z,6.67
2022-12-03T15:09:30.500Z,6.69
2022-12-03T15:11:57.633Z,6.70
2022-12-03T15:14:24.343Z,6.64
2022-12-03T15:16:51.597Z,6.67
2022-12-03T15:19:18.346Z,6.59
2022-12-03T15:21:45.381Z,6.63
2022-12-03T15:24:12.122Z,6.60
2022-12-03T15:26:39.200Z,6.65
2022-12-03T15:29:05.942Z,6.58
2022-12-03T15:31:33.178Z,6.58
2022-12-03T15:33:59.992Z,6.54
2022-12-03T15:36:27.056Z,6.61
2022-12-03T15:38:53.826Z,6.58
2022-12-03T15:41:21.420Z,6.58
2022-12-03T15:43:48.740Z,6.54
2022-12-03T15:46:16.066Z,6.55
2022-12-03T15:48:42.891Z,6.60
2022-12-03T15:51:10.008Z,6.53
2022-12-03T15:53:37.075Z,6.56
2022-12-03T15:56:04.372Z,6.64
2022-12-03T15:58:31.068Z,6.63
2022-12-03T16:00:58.197Z,6.65
2022-12-03T16:03:24.999Z,6.58
2022-12-03T16:05:52.076Z,6.58
2022-12-03T16:08:18.951Z,6.56
2022-12-03T16:10:46.015Z,6.58
2022-12-03T16:13:12.795Z,6.63
2022-12-03T16:15:39.976Z,6.63
2022-12-03T16:18:06.798Z,6.66
2022-12-03T16:20:34.162Z,6.63
2022-12-03T16:23:01.052Z,6.60
2022-12-03T16:25:28.127Z,6.58
2022-12-03T16:27:54.891Z,6.51
2022-12-03T16:30:21.882Z,6.54
2022-12-03T16:32:48.738Z,6.53
2022-12-03T16:35:15.853Z,6.55
2022-12-03T16:37:42.729Z,6.56
2022-12-03T16:40:11.537Z,6.52
2022-12-03T16:42:38.502Z,6.50
2022-12-03T16:45:08.856Z,6.51
2022-12-03T16:47:35.578Z,6.50
2022-12-03T16:50:03.851Z,6.44
2022-12-03T16:52:30.666Z,6.50
2022-12-03T16:54:57.697Z,6.53
2022-12-03T16:57:26.556Z,6.44
2022-12-03T16:59:57.375Z,6.44
2022-12-03T17:02:24.158Z,6.49
2022-12-03T17:04:51.352Z,6.46
2022-12-03T17:07:18.085Z,6.42
2022-12-03T17:09:45.169Z,6.43
2022-12-03T17:12:11.918Z,6.46
2022-12-03T17:14:38.957Z,6.43
2022-12-03T17:17:05.701Z,6.37
2022-12-03T17:19:32.760Z,6.41
2022-12-03T17:21:59.867Z,6.36
2022-12-03T17:24:26.991Z,6.37
2022-12-03T17:26:53.724Z,6.38
2022-12-03T17:29:20.817Z,6.34
2022-12-03T17:31:47.650Z,6.32
2022-12-03T17:34:14.753Z,6.32
2022-12-03T17:36:41.486Z,6.34
2022-12-03T17:39:08.541Z,6.46
2022-12-03T17:41:35.445Z,6.41
2022-12-03T17:44:07.259Z,6.39
2022-12-03T17:46:36.644Z,6.27
2022-12-03T17:49:03.761Z,6.31
2022-12-03T17:51:30.701Z,6.24
2022-12-03T17:53:57.782Z,6.30
2022-12-03T17:56:24.538Z,6.35
2022-12-03T17:58:51.678Z,6.37
2022-12-03T18:01:18.451Z,6.29
2022-12-03T18:03:45.546Z,6.24
2022-12-03T18:06:12.313Z,6.24
2022-12-03T18:08:39.340Z,6.19
2022-12-03T18:11:06.072Z,6.27
2022-12-03T18:13:33.095Z,6.31
2022-12-03T18:15:59.914Z,6.28
2022-12-03T18:18:26.968Z,6.30
2022-12-03T18:20:53.888Z,6.27
2022-12-03T18:23:20.910Z,6.24
2022-12-03T18:25:47.650Z,6.25
2022-12-03T18:28:14.681Z,6.31
2022-12-03T18:30:41.451Z,6.27
2022-12-03T18:33:08.701Z,6.27
2022-12-03T18:35:35.406Z,6.19
2022-12-03T18:38:02.440Z,6.21
2022-12-03T18:40:29.230Z,6.19
2022-12-03T18:42:56.992Z,6.16
2022-12-03T18:45:23.804Z,6.19
2022-12-03T18:47:50.850Z,6.30
2022-12-03T18:50:17.662Z,6.17
2022-12-03T18:52:44.782Z,6.22
2022-12-03T18:55:15.168Z,6.21
2022-12-03T18:57:42.335Z,6.30
2022-12-03T19:00:13.495Z,6.32
2022-12-03T19:05:28.160Z,6.21
2022-12-03T19:07:56.575Z,6.20
2022-12-03T19:10:23.709Z,6.10
2022-12-03T19:12:50.851Z,6.08
2022-12-03T19:15:17.713Z,6.16
2022-12-03T19:17:49.259Z,6.20
2022-12-03T19:20:16.030Z,6.25
2022-12-03T19:22:43.099Z,6.22
2022-12-03T19:25:09.961Z,6.15
2022-12-03T19:27:37.153Z,6.17
2022-12-03T19:30:04.626Z,6.24
2022-12-03T19:32:31.854Z,6.16
2022-12-03T19:34:58.679Z,6.13
2022-12-03T19:37:25.769Z,6.16
2022-12-03T19:39:53.577Z,6.20
2022-12-03T19:42:20.872Z,6.13
2022-12-03T19:44:47.632Z,6.16
2022-12-03T19:47:14.635Z,6.17
2022-12-03T19:49:41.377Z,6.10
2022-12-03T19:52:08.472Z,6.02
2022-12-03T19:54:35.159Z,6.09
2022-12-03T19:57:02.196Z,6.09
2022-12-03T19:59:28.997Z,6.09
2022-12-03T20:01:56.163Z,6.02
2022-12-03T20:04:22.987Z,6.08
2022-12-03T20:06:50.106Z,6.17
2022-12-03T20:09:18.013Z,6.16
2022-12-03T20:11:46.021Z,6.14
2022-12-03T20:14:16.171Z,6.08
2022-12-03T20:16:44.195Z,6.10
2022-12-03T20:19:12.491Z,6.11
2022-12-03T20:21:39.828Z,6.07
2022-12-03T20:24:06.911Z,6.08
2022-12-03T20:26:34.098Z,6.13
2022-12-03T20:29:01.032Z,6.09
2022-12-03T20:31:29.791Z,6.12
2022-12-03T20:33:58.425Z,6.03
2022-12-03T20:36:28.082Z,6.14
2022-12-03T20:38:58.998Z,6.10
2022-12-03T20:41:26.226Z,6.15
2022-12-03T20:43:53.345Z,6.10
2022-12-03T20:46:25.882Z,6.15
2022-12-03T20:48:54.100Z,6.10
2022-12-03T20:51:23.056Z,6.11
2022-12-03T20:53:49.897Z,6.05
2022-12-03T20:56:22.089Z,6.04
2022-12-03T20:58:49.337Z,6.06
2022-12-03T21:01:18.276Z,6.11
2022-12-03T21:03:45.338Z,6.17
2022-12-03T21:06:12.797Z,6.17
2022-12-03T21:08:42.220Z,6.18
2022-12-03T21:11:10.768Z,6.13
2022-12-03T21:13:41.103Z,6.00
2022-12-03T21:16:08.977Z,6.03
2022-12-03T21:18:35.722Z,6.10
2022-12-03T21:21:03.179Z,6.10
2022-12-03T21:23:30.525Z,6.10
2022-12-03T21:26:08.678Z,6.08
2022-12-03T21:28:35.517Z,6.11
2022-12-03T21:31:04.165Z,6.15
2022-12-03T21:33:31.475Z,6.15
2022-12-03T21:35:58.919Z,6.17
2022-12-03T21:38:25.970Z,6.12
2022-12-03T21:40:53.119Z,6.13
2022-12-03T21:43:20.007Z,6.13
2022-12-03T21:45:47.116Z,6.13
2022-12-03T21:48:13.957Z,6.16
2022-12-03T21:50:41.029Z,6.18
2022-12-03T21:53:07.807Z,6.19
2022-12-03T21:55:34.883Z,6.20
2022-12-03T21:58:01.896Z,6.19
2022-12-03T22:00:28.999Z,6.18
2022-12-03T22:02:55.787Z,6.21
2022-12-03T22:05:22.879Z,6.18
2022-12-03T22:07:49.641Z,6.19
2022-12-03T22:10:16.848Z,6.14
2022-12-03T22:12:43.631Z,6.10
2022-12-03T22:15:15.086Z,6.02
2022-12-03T22:17:45.363Z,5.98
2022-12-03T22:20:12.494Z,6.12
2022-12-03T22:22:39.286Z,6.15
2022-12-03T22:25:06.542Z,6.25
2022-12-03T22:27:33.299Z,6.21
2022-12-03T22:30:00.406Z,6.24
2022-12-03T22:32:27.321Z,6.24
2022-12-03T22:34:54.332Z,6.23
2022-12-03T22:37:21.097Z,6.19
2022-12-03T22:39:48.130Z,6.27
2022-12-03T22:42:14.838Z,6.27
2022-12-03T22:44:41.880Z,6.25
2022-12-03T22:47:08.653Z,6.26
2022-12-03T22:49:35.739Z,6.25
2022-12-03T22:52:02.480Z,6.30
2022-12-03T22:54:29.532Z,6.35
2022-12-03T22:56:56.660Z,6.36
2022-12-03T22:59:23.684Z,6.39
2022-12-03T23:01:50.445Z,6.38
2022-12-03T23:04:17.581Z,6.36
2022-12-03T23:06:44.399Z,6.30
2022-12-03T23:09:11.457Z,6.34
2022-12-03T23:11:38.383Z,6.35
2022-12-03T23:14:05.433Z,6.34
2022-12-03T23:16:32.753Z,6.30
2022-12-03T23:19:00.495Z,6.30
2022-12-03T23:21:30.148Z,6.32
2022-12-03T23:23:58.900Z,6.36
2022-12-03T23:26:25.743Z,6.32
2022-12-03T23:28:52.773Z,6.32
2022-12-03T23:31:20.583Z,6.35
2022-12-03T23:33:47.758Z,6.37
2022-12-03T23:36:14.624Z,6.35
2022-12-03T23:38:41.712Z,6.34
2022-12-03T23:41:13.364Z,6.34
2022-12-03T23:43:41.015Z,6.38
2022-12-03T23:46:10.198Z,6.35
2022-12-03T23:48:37.312Z,6.37
2022-12-03T23:51:08.129Z,6.38
2022-12-03T23:53:35.881Z,6.42
2022-12-03T23:56:20.324Z,6.42
2022-12-03T23:58:47.447Z,6.40
